createdAt,value
2022-10-28T00:01:34.183Z,13.84
2022-10-28T00:04:06.873Z,13.82
2022-10-28T00:06:39.781Z,13.80
2022-10-28T00:09:12.391Z,13.80
2022-10-28T00:11:44.644Z,13.76
2022-10-28T00:14:19.042Z,13.75
2022-10-28T00:16:51.207Z,13.74
2022-10-28T00:19:23.392Z,13.73
2022-10-28T00:21:55.576Z,13.72
2022-10-28T00:24:28.356Z,13.70
2022-10-28T00:27:00.649Z,13.69
2022-10-28T00:29:33.074Z,13.70
2022-10-28T00:32:05.123Z,13.69
2022-10-28T00:34:37.215Z,13.69
2022-10-28T00:37:09.326Z,13.67
2022-10-28T00:39:41.427Z,13.67
2022-10-28T00:42:22.301Z,13.67
2022-10-28T00:44:58.795Z,13.68
2022-10-28T00:47:52.610Z,13.69
2022-10-28T00:50:40.077Z,13.69
2022-10-28T00:53:16.829Z,13.70
2022-10-28T00:55:50.761Z,13.71
2022-10-28T00:58:26.109Z,13.71
2022-10-28T01:00:58.497Z,13.61
2022-10-28T01:03:31.069Z,13.69
2022-10-28T01:06:03.767Z,13.67
2022-10-28T01:08:35.890Z,13.67
2022-10-28T01:11:34.136Z,13.67
2022-10-28T01:14:18.591Z,13.66
2022-10-28T01:17:02.516Z,13.66
2022-10-28T01:20:07.435Z,13.65
2022-10-28T01:22:46.843Z,13.64
2022-10-28T01:25:40.910Z,13.63
2022-10-28T01:28:27.842Z,13.63
2022-10-28T01:31:20.784Z,13.63
2022-10-28T01:33:59.066Z,13.63
2022-10-28T01:36:40.362Z,13.64
2022-10-28T01:39:21.238Z,13.65
2022-10-28T01:41:57.702Z,13.64
2022-10-28T01:44:38.950Z,13.65
2022-10-28T01:47:15.768Z,13.64
2022-10-28T01:49:53.243Z,13.64
2022-10-28T01:52:30.137Z,13.64
2022-10-28T01:55:07.827Z,13.63
2022-10-28T01:57:42.954Z,13.63
2022-10-28T02:00:16.811Z,13.63
2022-10-28T02:02:50.728Z,13.62
2022-10-28T02:05:44.613Z,13.63
2022-10-28T02:08:34.898Z,13.62
2022-10-28T02:11:26.637Z,13.63
2022-10-28T02:14:08.587Z,13.61
2022-10-28T02:16:49.688Z,13.62
2022-10-28T02:19:34.968Z,13.56
2022-10-28T02:22:19.853Z,13.65
2022-10-28T02:25:03.161Z,13.57
2022-10-28T02:27:41.396Z,13.66
2022-10-28T02:30:18.568Z,13.66
2022-10-28T02:32:55.644Z,13.67
2022-10-28T02:35:33.431Z,13.68
2022-10-28T02:38:09.791Z,13.68
2022-10-28T02:40:44.622Z,13.60
2022-10-28T02:43:15.806Z,13.70
2022-10-28T02:45:52.579Z,13.71
2022-10-28T02:48:30.516Z,13.72
2022-10-28T02:51:08.880Z,13.72
2022-10-28T02:53:49.186Z,13.74
2022-10-28T02:56:22.948Z,13.75
2022-10-28T02:58:55.294Z,13.76
2022-10-28T03:01:27.957Z,13.77
2022-10-28T03:04:00.553Z,13.78
2022-10-28T03:06:33.647Z,13.79
2022-10-28T03:09:06.289Z,13.81
2022-10-28T03:11:38.476Z,13.81
2022-10-28T03:14:13.177Z,13.82
2022-10-28T03:16:47.344Z,13.74
2022-10-28T03:19:19.287Z,13.83
2022-10-28T03:21:51.488Z,13.81
2022-10-28T03:24:23.490Z,13.71
2022-10-28T03:26:55.572Z,13.78
2022-10-28T03:29:27.694Z,13.76
2022-10-28T03:32:00.323Z,13.79
2022-10-28T03:34:32.849Z,13.75
2022-10-28T03:37:04.817Z,13.85
2022-10-28T03:39:37.012Z,13.89
2022-10-28T03:42:09.133Z,13.91
2022-10-28T03:44:41.198Z,13.94
2022-10-28T03:47:13.536Z,13.94
2022-10-28T03:49:45.902Z,13.96
2022-10-28T03:52:17.805Z,13.98
2022-10-28T03:54:50.334Z,13.99
2022-10-28T03:57:22.339Z,14.03
2022-10-28T03:59:54.995Z,14.05
2022-10-28T04:02:27.810Z,14.06
2022-10-28T04:05:00.104Z,14.07
2022-10-28T04:07:33.740Z,14.07
2022-10-28T04:10:06.527Z,14.10
2022-10-28T04:12:38.548Z,14.12
2022-10-28T04:15:11.732Z,14.15
2022-10-28T04:17:43.689Z,14.15
2022-10-28T04:20:16.024Z,14.16
2022-10-28T04:22:47.970Z,14.19
2022-10-28T04:25:20.009Z,14.24
2022-10-28T04:27:52.301Z,14.25
2022-10-28T04:30:25.518Z,14.24
2022-10-28T04:32:57.885Z,14.16
2022-10-28T04:35:30.307Z,14.25
2022-10-28T04:38:04.864Z,14.27
2022-10-28T04:40:36.945Z,14.27
2022-10-28T04:43:10.430Z,14.27
2022-10-28T04:45:42.843Z,14.29
2022-10-28T04:48:15.186Z,14.26
2022-10-28T04:50:47.468Z,14.30
2022-10-28T04:53:19.374Z,14.32
2022-10-28T04:55:51.438Z,14.32
2022-10-28T04:58:23.608Z,14.35
2022-10-28T05:00:56.043Z,14.34
2022-10-28T05:03:28.199Z,14.36
2022-10-28T05:06:01.086Z,14.39
2022-10-28T05:08:32.986Z,14.42
2022-10-28T05:11:05.673Z,14.43
2022-10-28T05:13:37.762Z,14.41
2022-10-28T05:16:10.994Z,14.41
2022-10-28T05:21:19.950Z,14.39
2022-10-28T05:23:51.891Z,14.40
2022-10-28T05:26:24.289Z,14.39
2022-10-28T05:28:56.567Z,14.39
2022-10-28T05:31:29.095Z,14.37
2022-10-28T05:34:04.359Z,14.36
2022-10-28T05:36:37.003Z,14.33
2022-10-28T05:39:09.256Z,14.31
2022-10-28T05:41:42.297Z,14.30
2022-10-28T05:44:14.282Z,14.24
2022-10-28T05:46:46.224Z,14.22
2022-10-28T05:49:20.532Z,14.20
2022-10-28T05:51:52.720Z,14.19
2022-10-28T05:54:24.718Z,14.18
2022-10-28T05:56:57.116Z,14.19
2022-10-28T05:59:29.469Z,14.17
2022-10-28T06:02:01.681Z,14.18
2022-10-28T06:04:35.843Z,14.15
2022-10-28T06:07:08.034Z,14.19
2022-10-28T06:09:40.303Z,14.18
2022-10-28T06:12:11.080Z,14.21
2022-10-28T06:14:43.512Z,14.24
2022-10-28T06:17:15.751Z,14.10
2022-10-28T06:19:47.921Z,14.09
2022-10-28T06:22:19.936Z,14.07
2022-10-28T06:24:51.998Z,14.14
2022-10-28T06:27:24.431Z,14.08
2022-10-28T06:29:56.451Z,14.19
2022-10-28T06:32:28.749Z,14.19
2022-10-28T06:35:00.962Z,14.22
2022-10-28T06:37:33.308Z,14.31
2022-10-28T06:40:07.509Z,14.28
2022-10-28T06:42:39.679Z,14.30
2022-10-28T06:45:12.188Z,14.35
2022-10-28T06:47:46.010Z,14.41
2022-10-28T06:50:18.175Z,14.36
2022-10-28T06:52:50.306Z,14.45
2022-10-28T06:55:22.416Z,14.44
2022-10-28T06:57:55.132Z,14.38
2022-10-28T07:00:27.741Z,14.37
2022-10-28T07:03:05.889Z,14.29
2022-10-28T07:05:38.684Z,14.36
2022-10-28T07:08:11.093Z,14.44
2022-10-28T07:10:43.341Z,14.51
2022-10-28T07:13:15.476Z,14.55
2022-10-28T07:15:51.610Z,14.60
2022-10-28T07:18:24.583Z,14.65
2022-10-28T07:20:58.897Z,14.66
2022-10-28T07:23:33.054Z,14.69
2022-10-28T07:26:05.237Z,14.72
2022-10-28T07:28:37.264Z,14.82
2022-10-28T07:33:47.151Z,14.84
2022-10-28T07:36:19.283Z,14.91
2022-10-28T07:38:53.504Z,15.00
2022-10-28T07:41:26.603Z,15.04
2022-10-28T07:43:58.786Z,15.02
2022-10-28T07:46:30.943Z,15.04
2022-10-28T07:49:02.989Z,15.10
2022-10-28T07:51:35.249Z,15.14
2022-10-28T07:54:07.368Z,15.17
2022-10-28T07:56:39.435Z,15.18
2022-10-28T07:59:11.412Z,15.17
2022-10-28T08:01:43.455Z,15.21
2022-10-28T08:04:16.074Z,15.35
2022-10-28T08:06:48.711Z,15.41
2022-10-28T08:09:21.269Z,15.48
2022-10-28T08:11:56.164Z,15.56
2022-10-28T08:14:26.575Z,15.57
2022-10-28T08:16:58.610Z,15.54
2022-10-28T08:19:30.630Z,15.59
2022-10-28T08:22:03.014Z,15.77
2022-10-28T08:24:35.006Z,15.79
2022-10-28T08:27:07.521Z,15.85
2022-10-28T08:29:39.607Z,15.94
2022-10-28T08:32:12.237Z,15.99
2022-10-28T08:34:44.928Z,16.04
2022-10-28T08:37:17.554Z,16.06
2022-10-28T08:39:49.814Z,16.11
2022-10-28T08:42:36.789Z,16.13
2022-10-28T08:45:26.023Z,16.22
2022-10-28T08:48:09.737Z,16.32
2022-10-28T08:50:50.436Z,16.30
2022-10-28T08:53:29.552Z,16.43
2022-10-28T08:56:14.587Z,16.47
2022-10-28T08:58:48.317Z,16.49
2022-10-28T09:01:37.769Z,16.57
2022-10-28T09:04:21.618Z,16.65
2022-10-28T09:06:54.337Z,16.67
2022-10-28T09:09:26.712Z,16.80
2022-10-28T09:12:16.286Z,16.74
2022-10-28T09:15:14.885Z,16.95
2022-10-28T09:17:55.285Z,17.04
2022-10-28T09:20:40.508Z,17.06
2022-10-28T09:23:21.984Z,17.21
2022-10-28T09:26:11.896Z,17.31
2022-10-28T09:29:00.338Z,17.44
2022-10-28T09:31:37.507Z,17.57
2022-10-28T09:34:20.597Z,17.57
2022-10-28T09:36:57.473Z,17.75
2022-10-28T09:39:35.770Z,17.87
2022-10-28T09:42:12.046Z,17.91
2022-10-28T09:44:48.512Z,17.97
2022-10-28T09:47:24.721Z,18.11
2022-10-28T09:50:02.747Z,18.20
2022-10-28T09:52:41.664Z,18.14
2022-10-28T09:55:22.218Z,18.23
2022-10-28T09:57:55.056Z,18.22
2022-10-28T10:00:27.804Z,18.18
2022-10-28T10:03:01.382Z,18.18
2022-10-28T10:05:35.359Z,18.32
2022-10-28T10:08:08.533Z,18.32
2022-10-28T10:10:48.414Z,18.32
2022-10-28T10:13:25.177Z,18.28
2022-10-28T10:16:01.970Z,18.33
2022-10-28T10:18:35.267Z,18.45
2022-10-28T10:21:07.377Z,18.46
2022-10-28T10:26:18.868Z,18.60
2022-10-28T10:28:53.077Z,18.67
2022-10-28T10:31:29.907Z,18.69
2022-10-28T10:34:02.660Z,18.69
2022-10-28T10:36:35.395Z,18.71
2022-10-28T10:39:21.543Z,18.73
2022-10-28T10:41:55.570Z,18.73
2022-10-28T10:44:35.167Z,18.67
2022-10-28T10:47:25.489Z,18.71
2022-10-28T10:50:21.337Z,18.71
2022-10-28T10:52:56.652Z,18.72
2022-10-28T10:55:37.737Z,18.68
2022-10-28T10:58:19.601Z,18.68
2022-10-28T11:00:55.213Z,18.67
2022-10-28T11:03:30.879Z,18.72
2022-10-28T11:06:22.464Z,18.69
2022-10-28T11:09:01.313Z,18.81
2022-10-28T11:11:38.688Z,18.75
2022-10-28T11:14:25.552Z,18.91
2022-10-28T11:16:59.250Z,19.02
2022-10-28T11:19:33.913Z,19.15
2022-10-28T11:22:22.619Z,19.26
2022-10-28T11:25:19.306Z,19.48
2022-10-28T11:28:04.377Z,19.71
2022-10-28T11:30:47.566Z,19.72
2022-10-28T11:33:30.112Z,19.54
2022-10-28T11:36:22.252Z,19.30
2022-10-28T11:39:13.656Z,19.21
2022-10-28T11:41:57.181Z,19.34
2022-10-28T11:47:36.534Z,19.65
2022-10-28T11:50:29.052Z,19.79
2022-10-28T11:53:37.239Z,19.60
2022-10-28T11:56:19.317Z,19.65
2022-10-28T11:58:59.449Z,19.80
2022-10-28T12:01:46.014Z,20.00
2022-10-28T12:04:43.188Z,20.24
2022-10-28T12:07:34.080Z,20.35
2022-10-28T12:10:21.435Z,20.42
2022-10-28T12:13:03.075Z,20.57
2022-10-28T12:15:44.943Z,20.56
2022-10-28T12:18:25.571Z,20.44
2022-10-28T12:21:03.885Z,20.51
2022-10-28T12:23:39.350Z,20.66
2022-10-28T12:26:14.872Z,20.83
2022-10-28T12:28:51.463Z,20.94
2022-10-28T12:31:27.660Z,20.85
2022-10-28T12:34:03.043Z,20.74
2022-10-28T12:36:39.919Z,20.62
2022-10-28T12:39:19.486Z,20.49
2022-10-28T12:41:57.431Z,20.37
2022-10-28T12:44:31.032Z,20.39
2022-10-28T12:47:13.147Z,20.45
2022-10-28T12:49:55.667Z,20.58
2022-10-28T12:52:39.546Z,20.63
2022-10-28T12:55:20.191Z,20.57
2022-10-28T12:58:00.021Z,20.50
2022-10-28T13:00:36.732Z,20.61
2022-10-28T13:03:13.340Z,20.67
2022-10-28T13:05:52.520Z,20.73
2022-10-28T13:09:00.494Z,20.85
2022-10-28T13:11:54.393Z,20.95
2022-10-28T13:15:04.454Z,21.02
2022-10-28T13:17:48.582Z,20.99
2022-10-28T13:20:30.185Z,21.12
2022-10-28T13:23:17.433Z,21.17
2022-10-28T13:26:04.271Z,21.31
2022-10-28T13:28:44.203Z,21.37
2022-10-28T13:31:16.764Z,21.34
2022-10-28T13:33:56.899Z,21.34
2022-10-28T13:36:32.614Z,21.35
2022-10-28T13:39:22.340Z,21.29
2022-10-28T13:42:37.771Z,21.34
2022-10-28T13:45:50.492Z,21.29
2022-10-28T13:48:49.512Z,21.27
2022-10-28T13:51:48.155Z,21.22
2022-10-28T13:54:32.659Z,21.24
2022-10-28T13:57:13.293Z,21.28
2022-10-28T13:59:54.697Z,21.30
2022-10-28T14:02:36.184Z,21.34
2022-10-28T14:05:10.992Z,21.31
2022-10-28T14:07:56.477Z,21.18
2022-10-28T14:10:31.162Z,21.04
2022-10-28T14:13:06.036Z,20.95
2022-10-28T14:15:37.087Z,20.81
2022-10-28T14:21:16.802Z,20.68
2022-10-28T14:24:31.825Z,20.59
2022-10-28T14:27:31.102Z,20.49
2022-10-28T14:30:20.300Z,20.43
2022-10-28T14:33:31.699Z,20.39
2022-10-28T14:36:23.851Z,20.36
2022-10-28T14:39:19.099Z,20.29
2022-10-28T14:42:15.595Z,20.23
2022-10-28T14:45:20.972Z,20.11
2022-10-28T14:48:12.469Z,20.09
2022-10-28T14:50:48.131Z,20.03
2022-10-28T14:53:25.511Z,19.99
2022-10-28T14:56:04.273Z,19.95
2022-10-28T14:58:41.575Z,19.89
2022-10-28T15:01:27.333Z,19.82
2022-10-28T15:04:02.493Z,19.81
2022-10-28T15:06:40.666Z,19.75
2022-10-28T15:09:20.349Z,19.73
2022-10-28T15:11:57.293Z,19.69
2022-10-28T15:14:36.772Z,19.65
2022-10-28T15:17:17.308Z,19.61
2022-10-28T15:19:52.160Z,19.57
2022-10-28T15:22:26.534Z,19.53
2022-10-28T15:25:01.673Z,19.50
2022-10-28T15:27:36.686Z,19.37
2022-10-28T15:30:17.018Z,19.42
2022-10-28T15:32:49.128Z,19.40
2022-10-28T15:35:40.893Z,19.37
2022-10-28T15:38:38.246Z,19.34
2022-10-28T15:41:44.081Z,19.27
2022-10-28T15:44:35.556Z,19.22
2022-10-28T15:47:27.982Z,19.20
2022-10-28T15:50:07.031Z,19.17
2022-10-28T15:52:41.154Z,19.15
2022-10-28T15:58:41.757Z,19.07
2022-10-28T16:01:31.489Z,19.02
2022-10-28T16:04:03.920Z,19.00
2022-10-28T16:06:38.061Z,18.94
2022-10-28T16:09:24.987Z,18.91
2022-10-28T16:12:01.721Z,18.88
2022-10-28T16:14:40.589Z,18.83
2022-10-28T16:17:19.385Z,18.74
2022-10-28T16:19:56.810Z,18.77
2022-10-28T16:22:31.825Z,18.73
2022-10-28T16:25:02.322Z,18.68
2022-10-28T16:27:35.110Z,18.65
2022-10-28T16:30:09.173Z,18.62
2022-10-28T16:32:43.880Z,18.59
2022-10-28T16:35:16.758Z,18.55
2022-10-28T16:37:54.796Z,18.49
2022-10-28T16:40:50.280Z,18.44
2022-10-28T16:43:22.056Z,18.40
2022-10-28T16:45:55.451Z,18.38
2022-10-28T16:48:29.416Z,18.36
2022-10-28T16:51:04.096Z,18.30
2022-10-28T16:53:36.604Z,18.21
2022-10-28T16:56:13.581Z,18.21
2022-10-28T16:58:47.600Z,18.20
2022-10-28T17:01:22.390Z,18.17
2022-10-28T17:03:54.844Z,18.13
2022-10-28T17:06:26.990Z,18.12
2022-10-28T17:09:03.578Z,18.09
2022-10-28T17:11:36.071Z,18.10
2022-10-28T17:14:08.296Z,18.09
2022-10-28T17:16:43.215Z,18.12
2022-10-28T17:19:15.758Z,18.06
2022-10-28T17:21:47.851Z,18.03
2022-10-28T17:24:20.492Z,18.04
2022-10-28T17:26:53.263Z,17.96
2022-10-28T17:29:25.537Z,18.03
2022-10-28T17:31:57.844Z,18.04
2022-10-28T17:34:30.204Z,17.97
2022-10-28T17:37:02.207Z,18.04
2022-10-28T17:39:34.500Z,18.03
2022-10-28T17:42:07.020Z,18.00
2022-10-28T17:44:39.814Z,17.99
2022-10-28T17:47:13.168Z,17.98
2022-10-28T17:49:45.337Z,17.97
2022-10-28T17:52:17.763Z,17.95
2022-10-28T17:54:51.204Z,17.89
2022-10-28T17:57:23.440Z,17.83
2022-10-28T17:59:55.963Z,17.84
2022-10-28T18:02:28.689Z,17.80
2022-10-28T18:05:00.982Z,17.73
2022-10-28T18:07:33.205Z,17.71
2022-10-28T18:10:06.335Z,17.68
2022-10-28T18:12:38.785Z,17.74
2022-10-28T18:15:12.417Z,17.76
2022-10-28T18:17:44.860Z,17.75
2022-10-28T18:20:19.044Z,17.71
2022-10-28T18:22:50.519Z,17.77
2022-10-28T18:25:22.506Z,17.79
2022-10-28T18:27:54.986Z,17.76
2022-10-28T18:30:27.326Z,17.75
2022-10-28T18:33:00.863Z,17.75
2022-10-28T18:35:35.340Z,17.76
2022-10-28T18:38:07.703Z,17.73
2022-10-28T18:40:46.432Z,17.73
2022-10-28T18:43:19.606Z,17.73
2022-10-28T18:45:53.659Z,17.75
2022-10-28T18:48:26.095Z,17.77
2022-10-28T18:51:02.376Z,17.73
2022-10-28T18:53:38.239Z,17.59
2022-10-28T18:56:13.921Z,17.63
2022-10-28T18:58:48.413Z,17.60
2022-10-28T19:01:23.148Z,17.62
2022-10-28T19:03:57.305Z,17.55
2022-10-28T19:06:32.675Z,17.62
2022-10-28T19:09:07.635Z,17.61
2022-10-28T19:11:40.955Z,17.62
2022-10-28T19:14:13.841Z,17.60
2022-10-28T19:16:46.375Z,17.54
2022-10-28T19:19:19.525Z,17.56
2022-10-28T19:21:52.595Z,17.45
2022-10-28T19:24:26.667Z,17.37
2022-10-28T19:26:59.441Z,17.48
2022-10-28T19:29:32.850Z,17.45
2022-10-28T19:32:06.946Z,17.53
2022-10-28T19:34:40.844Z,17.53
2022-10-28T19:37:13.758Z,17.49
2022-10-28T19:39:47.007Z,17.42
2022-10-28T19:42:19.355Z,17.37
2022-10-28T19:44:52.037Z,17.41
2022-10-28T19:47:24.556Z,17.38
2022-10-28T19:49:56.734Z,17.42
2022-10-28T19:52:28.920Z,17.47
2022-10-28T19:55:01.075Z,17.39
2022-10-28T19:57:33.651Z,17.42
2022-10-28T20:00:07.039Z,17.36
2022-10-28T20:02:44.022Z,17.39
2022-10-28T20:05:16.740Z,17.34
2022-10-28T20:07:48.926Z,17.29
2022-10-28T20:10:21.832Z,17.47
2022-10-28T20:12:54.223Z,17.46
2022-10-28T20:15:26.822Z,17.38
2022-10-28T20:17:58.939Z,17.39
2022-10-28T20:20:31.238Z,17.43
2022-10-28T20:23:03.317Z,17.36
2022-10-28T20:25:35.323Z,17.39
2022-10-28T20:28:07.716Z,17.32
2022-10-28T20:30:39.841Z,17.34
2022-10-28T20:33:12.009Z,17.25
2022-10-28T20:35:44.244Z,17.27
2022-10-28T20:38:16.815Z,17.24
2022-10-28T20:40:51.113Z,17.36
2022-10-28T20:43:25.196Z,17.45
2022-10-28T20:45:59.858Z,17.37
2022-10-28T20:48:32.456Z,17.26
2022-10-28T20:51:05.127Z,17.17
2022-10-28T20:53:37.526Z,17.31
2022-10-28T20:56:15.884Z,17.25
2022-10-28T20:58:48.311Z,17.14
2022-10-28T21:01:22.234Z,17.17
2022-10-28T21:03:57.584Z,17.22
2022-10-28T21:06:31.507Z,17.18
2022-10-28T21:09:05.165Z,17.22
2022-10-28T21:11:37.277Z,17.23
2022-10-28T21:14:09.748Z,17.23
2022-10-28T21:16:42.261Z,17.21
2022-10-28T21:19:14.307Z,17.24
2022-10-28T21:21:46.224Z,17.15
2022-10-28T21:24:18.196Z,17.14
2022-10-28T21:26:52.162Z,17.17
2022-10-28T21:29:24.633Z,17.16
2022-10-28T21:31:56.689Z,17.26
2022-10-28T21:34:28.891Z,17.18
2022-10-28T21:37:01.258Z,17.08
2022-10-28T21:39:33.749Z,17.12
2022-10-28T21:42:06.313Z,17.19
2022-10-28T21:44:38.287Z,17.23
2022-10-28T21:47:10.363Z,17.23
2022-10-28T21:49:42.553Z,17.17
2022-10-28T21:52:14.432Z,17.07
2022-10-28T21:54:46.952Z,17.04
2022-10-28T21:57:19.033Z,17.04
2022-10-28T21:59:51.052Z,17.06
2022-10-28T22:02:23.911Z,16.95
2022-10-28T22:04:56.135Z,16.91
2022-10-28T22:07:28.574Z,16.93
2022-10-28T22:10:00.573Z,16.79
2022-10-28T22:12:33.284Z,16.84
2022-10-28T22:15:05.921Z,16.72
2022-10-28T22:17:38.001Z,16.63
2022-10-28T22:20:11.537Z,16.52
2022-10-28T22:22:43.726Z,16.58
2022-10-28T22:25:18.405Z,16.62
2022-10-28T22:27:50.774Z,16.71
2022-10-28T22:30:22.805Z,16.72
2022-10-28T22:32:55.092Z,16.80
2022-10-28T22:35:27.668Z,16.83
2022-10-28T22:37:59.931Z,16.77
2022-10-28T22:40:31.968Z,16.84
2022-10-28T22:43:03.964Z,16.85
2022-10-28T22:45:36.034Z,16.85
2022-10-28T22:48:08.861Z,16.86
2022-10-28T22:50:40.915Z,16.85
2022-10-28T22:53:12.912Z,16.86
2022-10-28T22:55:45.261Z,16.85
2022-10-28T22:58:18.334Z,16.83
2022-10-28T23:00:50.489Z,16.77
2022-10-28T23:03:22.714Z,16.78
2022-10-28T23:05:55.167Z,16.78
2022-10-28T23:08:27.264Z,16.80
2022-10-28T23:10:59.284Z,16.80
2022-10-28T23:13:31.386Z,16.80
2022-10-28T23:16:07.369Z,16.80
2022-10-28T23:18:40.149Z,16.77
2022-10-28T23:21:15.015Z,16.75
2022-10-28T23:23:51.402Z,16.73
2022-10-28T23:26:26.641Z,16.70
2022-10-28T23:29:00.705Z,16.67
2022-10-28T23:31:32.823Z,16.67
2022-10-28T23:34:04.828Z,16.66
2022-10-28T23:36:37.354Z,16.64
2022-10-28T23:39:09.987Z,16.47
2022-10-28T23:41:42.099Z,16.55
2022-10-28T23:44:14.727Z,16.52
2022-10-28T23:46:47.231Z,16.50
2022-10-28T23:49:19.231Z,16.48
2022-10-28T23:51:51.414Z,16.43
2022-10-28T23:54:23.360Z,16.41
2022-10-28T23:56:55.413Z,16.35
2022-10-28T23:59:27.630Z,16.37
